sensor_id;sensor_type;location;lat;lon;timestamp;P1;durP1;ratioP1;P2;durP2;ratioP2
51288;SDS011;37372;52.294;5.152;2023-04-01T00:02:02;34.47;;;12.23;;
51288;SDS011;37372;52.294;5.152;2023-04-01T00:04:41;34.67;;;10.88;;
51288;SDS011;37372;52.294;5.152;2023-04-01T00:07:07;40.17;;;13.13;;
51288;SDS011;37372;52.294;5.152;2023-04-01T00:09:36;35.88;;;12.93;;
51288;SDS011;37372;52.294;5.152;2023-04-01T00:12:03;37.20;;;14.25;;
51288;SDS011;37372;52.294;5.152;2023-04-01T00:14:35;36.22;;;12.18;;
51288;SDS011;37372;52.294;5.152;2023-04-01T00:17:13;36.08;;;14.77;;
51288;SDS011;37372;52.294;5.152;2023-04-01T00:19:38;39.85;;;15.63;;
51288;SDS011;37372;52.294;5.152;2023-04-01T00:22:04;49.58;;;16.60;;
51288;SDS011;37372;52.294;5.152;2023-04-01T00:24:31;44.42;;;17.08;;
51288;SDS011;37372;52.294;5.152;2023-04-01T00:26:57;41.72;;;18.02;;
51288;SDS011;37372;52.294;5.152;2023-04-01T00:29:23;56.78;;;17.40;;
51288;SDS011;37372;52.294;5.152;2023-04-01T00:31:55;39.38;;;16.77;;
51288;SDS011;37372;52.294;5.152;2023-04-01T00:34:24;42.17;;;18.38;;
51288;SDS011;37372;52.294;5.152;2023-04-01T00:36:51;54.63;;;18.80;;
51288;SDS011;37372;52.294;5.152;2023-04-01T00:39:23;56.22;;;19.42;;
51288;SDS011;37372;52.294;5.152;2023-04-01T00:44:36;46.97;;;20.23;;
51288;SDS011;37372;52.294;5.152;2023-04-01T00:47:08;57.85;;;18.55;;
51288;SDS011;37372;52.294;5.152;2023-04-01T00:49:39;45.17;;;17.25;;
51288;SDS011;37372;52.294;5.152;2023-04-01T00:52:13;41.38;;;17.88;;
51288;SDS011;37372;52.294;5.152;2023-04-01T00:54:44;44.53;;;15.90;;
51288;SDS011;37372;52.294;5.152;2023-04-01T00:57:21;40.80;;;13.73;;
51288;SDS011;37372;52.294;5.152;2023-04-01T00:59:54;42.95;;;14.55;;
51288;SDS011;37372;52.294;5.152;2023-04-01T01:02:21;37.75;;;13.40;;
51288;SDS011;37372;52.294;5.152;2023-04-01T01:04:47;37.97;;;13.00;;
51288;SDS011;37372;52.294;5.152;2023-04-01T01:10:19;30.15;;;12.10;;
51288;SDS011;37372;52.294;5.152;2023-04-01T01:15:23;26.52;;;9.10;;
51288;SDS011;37372;52.294;5.152;2023-04-01T01:17:57;22.80;;;11.30;;
51288;SDS011;37372;52.294;5.152;2023-04-01T01:37:44;17.50;;;8.05;;
51288;SDS011;37372;52.294;5.152;2023-04-01T01:40:13;24.08;;;7.88;;
51288;SDS011;37372;52.294;5.152;2023-04-01T01:42:41;18.15;;;7.38;;
51288;SDS011;37372;52.294;5.152;2023-04-01T01:45:16;15.23;;;7.75;;
51288;SDS011;37372;52.294;5.152;2023-04-01T01:47:48;18.23;;;7.68;;
51288;SDS011;37372;52.294;5.152;2023-04-01T01:50:16;14.93;;;6.78;;
51288;SDS011;37372;52.294;5.152;2023-04-01T01:52:43;15.32;;;6.03;;
51288;SDS011;37372;52.294;5.152;2023-04-01T01:57:57;16.58;;;7.13;;
51288;SDS011;37372;52.294;5.152;2023-04-01T02:00:24;15.73;;;6.70;;
51288;SDS011;37372;52.294;5.152;2023-04-01T02:02:51;16.52;;;7.38;;
51288;SDS011;37372;52.294;5.152;2023-04-01T02:05:21;13.15;;;7.20;;
51288;SDS011;37372;52.294;5.152;2023-04-01T02:07:52;15.00;;;6.97;;
51288;SDS011;37372;52.294;5.152;2023-04-01T02:10:36;16.63;;;7.10;;
51288;SDS011;37372;52.294;5.152;2023-04-01T02:13:15;15.05;;;6.65;;
51288;SDS011;37372;52.294;5.152;2023-04-01T02:15:59;14.88;;;7.18;;
51288;SDS011;37372;52.294;5.152;2023-04-01T02:18:29;14.95;;;7.10;;
51288;SDS011;37372;52.294;5.152;2023-04-01T02:21:03;15.40;;;8.00;;
51288;SDS011;37372;52.294;5.152;2023-04-01T02:23:31;15.38;;;7.68;;
51288;SDS011;37372;52.294;5.152;2023-04-01T02:26:09;20.45;;;8.52;;
51288;SDS011;37372;52.294;5.152;2023-04-01T02:28:38;22.02;;;9.55;;
51288;SDS011;37372;52.294;5.152;2023-04-01T02:31:10;19.27;;;10.02;;
51288;SDS011;37372;52.294;5.152;2023-04-01T02:33:37;25.27;;;9.77;;
51288;SDS011;37372;52.294;5.152;2023-04-01T02:36:04;19.65;;;8.88;;
51288;SDS011;37372;52.294;5.152;2023-04-01T02:38:31;18.80;;;9.13;;
51288;SDS011;37372;52.294;5.152;2023-04-01T02:41:00;20.15;;;9.18;;
51288;SDS011;37372;52.294;5.152;2023-04-01T02:43:27;21.20;;;8.48;;
51288;SDS011;37372;52.294;5.152;2023-04-01T02:45:53;17.88;;;9.20;;
51288;SDS011;37372;52.294;5.152;2023-04-01T02:48:28;21.40;;;9.90;;
51288;SDS011;37372;52.294;5.152;2023-04-01T02:50:54;39.22;;;14.88;;
51288;SDS011;37372;52.294;5.152;2023-04-01T02:53:20;37.42;;;18.00;;
51288;SDS011;37372;52.294;5.152;2023-04-01T02:55:47;55.03;;;17.83;;
51288;SDS011;37372;52.294;5.152;2023-04-01T02:58:15;46.03;;;19.58;;
51288;SDS011;37372;52.294;5.152;2023-04-01T03:00:42;48.97;;;18.25;;
51288;SDS011;37372;52.294;5.152;2023-04-01T03:03:08;45.60;;;19.20;;
51288;SDS011;37372;52.294;5.152;2023-04-01T03:05:41;52.05;;;18.65;;
51288;SDS011;37372;52.294;5.152;2023-04-01T03:08:10;39.63;;;18.60;;
51288;SDS011;37372;52.294;5.152;2023-04-01T03:10:37;40.97;;;15.82;;
51288;SDS011;37372;52.294;5.152;2023-04-01T03:13:03;34.85;;;14.85;;
51288;SDS011;37372;52.294;5.152;2023-04-01T03:15:35;33.92;;;14.00;;
51288;SDS011;37372;52.294;5.152;2023-04-01T03:18:01;36.40;;;13.63;;
51288;SDS011;37372;52.294;5.152;2023-04-01T03:20:32;26.40;;;12.43;;
51288;SDS011;37372;52.294;5.152;2023-04-01T03:22:59;23.25;;;10.80;;
51288;SDS011;37372;52.294;5.152;2023-04-01T03:25:24;22.60;;;10.75;;
51288;SDS011;37372;52.294;5.152;2023-04-01T03:27:50;24.33;;;11.18;;
51288;SDS011;37372;52.294;5.152;2023-04-01T03:30:16;25.00;;;9.85;;
51288;SDS011;37372;52.294;5.152;2023-04-01T03:32:44;19.17;;;9.32;;
51288;SDS011;37372;52.294;5.152;2023-04-01T03:35:11;21.45;;;10.00;;
51288;SDS011;37372;52.294;5.152;2023-04-01T03:38:00;28.02;;;10.07;;
51288;SDS011;37372;52.294;5.152;2023-04-01T03:40:24;27.02;;;10.27;;
51288;SDS011;37372;52.294;5.152;2023-04-01T03:42:51;19.30;;;8.50;;
51288;SDS011;37372;52.294;5.152;2023-04-01T03:45:17;20.33;;;8.32;;
51288;SDS011;37372;52.294;5.152;2023-04-01T03:47:48;15.60;;;6.68;;
51288;SDS011;37372;52.294;5.152;2023-04-01T03:50:29;14.48;;;6.70;;
51288;SDS011;37372;52.294;5.152;2023-04-01T03:52:55;16.38;;;6.28;;
51288;SDS011;37372;52.294;5.152;2023-04-01T03:55:29;14.98;;;5.43;;
51288;SDS011;37372;52.294;5.152;2023-04-01T03:58:03;9.63;;;4.60;;
51288;SDS011;37372;52.294;5.152;2023-04-01T04:00:30;12.15;;;4.70;;
51288;SDS011;37372;52.294;5.152;2023-04-01T04:02:56;9.20;;;3.97;;
51288;SDS011;37372;52.294;5.152;2023-04-01T04:05:26;9.90;;;3.78;;
51288;SDS011;37372;52.294;5.152;2023-04-01T04:08:08;8.68;;;3.60;;
51288;SDS011;37372;52.294;5.152;2023-04-01T04:10:34;14.65;;;4.70;;
51288;SDS011;37372;52.294;5.152;2023-04-01T04:13:00;9.18;;;5.32;;
51288;SDS011;37372;52.294;5.152;2023-04-01T04:15:27;14.23;;;5.07;;
51288;SDS011;37372;52.294;5.152;2023-04-01T04:17:57;11.38;;;6.28;;
51288;SDS011;37372;52.294;5.152;2023-04-01T04:20:31;12.38;;;6.28;;
51288;SDS011;37372;52.294;5.152;2023-04-01T04:22:59;13.15;;;6.82;;
51288;SDS011;37372;52.294;5.152;2023-04-01T04:25:29;15.40;;;7.70;;
51288;SDS011;37372;52.294;5.152;2023-04-01T04:28:07;14.90;;;7.40;;
51288;SDS011;37372;52.294;5.152;2023-04-01T04:30:32;16.42;;;8.85;;
51288;SDS011;37372;52.294;5.152;2023-04-01T04:32:58;14.95;;;7.63;;
51288;SDS011;37372;52.294;5.152;2023-04-01T04:35:32;16.45;;;7.45;;
51288;SDS011;37372;52.294;5.152;2023-04-01T04:37:59;16.08;;;7.53;;
51288;SDS011;37372;52.294;5.152;2023-04-01T04:40:26;16.10;;;8.23;;
51288;SDS011;37372;52.294;5.152;2023-04-01T04:42:55;19.08;;;8.07;;
51288;SDS011;37372;52.294;5.152;2023-04-01T04:45:29;16.80;;;8.18;;
51288;SDS011;37372;52.294;5.152;2023-04-01T04:47:57;17.27;;;8.07;;
51288;SDS011;37372;52.294;5.152;2023-04-01T04:50:28;17.40;;;8.15;;
51288;SDS011;37372;52.294;5.152;2023-04-01T04:53:03;22.88;;;10.07;;
51288;SDS011;37372;52.294;5.152;2023-04-01T04:55:48;16.85;;;9.02;;
51288;SDS011;37372;52.294;5.152;2023-04-01T04:58:17;16.08;;;7.78;;
51288;SDS011;37372;52.294;5.152;2023-04-01T05:00:43;21.17;;;9.05;;
51288;SDS011;37372;52.294;5.152;2023-04-01T05:03:09;15.57;;;9.30;;
51288;SDS011;37372;52.294;5.152;2023-04-01T05:05:36;17.10;;;10.07;;
51288;SDS011;37372;52.294;5.152;2023-04-01T05:08:03;19.55;;;10.70;;
51288;SDS011;37372;52.294;5.152;2023-04-01T05:10:30;21.17;;;10.60;;
51288;SDS011;37372;52.294;5.152;2023-04-01T05:13:05;19.13;;;10.10;;
51288;SDS011;37372;52.294;5.152;2023-04-01T05:15:40;18.13;;;9.60;;
51288;SDS011;37372;52.294;5.152;2023-04-01T05:18:15;18.92;;;10.35;;
51288;SDS011;37372;52.294;5.152;2023-04-01T05:20:45;18.02;;;9.38;;
51288;SDS011;37372;52.294;5.152;2023-04-01T05:23:25;20.00;;;10.45;;
51288;SDS011;37372;52.294;5.152;2023-04-01T05:25:50;18.65;;;9.23;;
51288;SDS011;37372;52.294;5.152;2023-04-01T05:28:19;19.10;;;9.20;;
51288;SDS011;37372;52.294;5.152;2023-04-01T05:30:45;23.02;;;9.70;;
51288;SDS011;37372;52.294;5.152;2023-04-01T05:33:14;18.98;;;9.77;;
51288;SDS011;37372;52.294;5.152;2023-04-01T05:35:40;21.92;;;10.77;;
51288;SDS011;37372;52.294;5.152;2023-04-01T05:38:18;20.27;;;10.15;;
51288;SDS011;37372;52.294;5.152;2023-04-01T05:40:44;20.58;;;9.95;;
51288;SDS011;37372;52.294;5.152;2023-04-01T05:43:13;18.55;;;10.10;;
51288;SDS011;37372;52.294;5.152;2023-04-01T05:45:42;20.48;;;10.13;;
51288;SDS011;37372;52.294;5.152;2023-04-01T05:48:10;19.95;;;9.15;;
51288;SDS011;37372;52.294;5.152;2023-04-01T05:50:39;22.77;;;10.30;;
51288;SDS011;37372;52.294;5.152;2023-04-01T05:53:09;20.40;;;10.45;;
51288;SDS011;37372;52.294;5.152;2023-04-01T05:55:48;23.00;;;11.60;;
51288;SDS011;37372;52.294;5.152;2023-04-01T05:58:18;22.90;;;10.23;;
51288;SDS011;37372;52.294;5.152;2023-04-01T06:01:10;22.42;;;11.43;;
51288;SDS011;37372;52.294;5.152;2023-04-01T06:03:43;21.27;;;10.18;;
51288;SDS011;37372;52.294;5.152;2023-04-01T06:06:16;27.30;;;10.32;;
51288;SDS011;37372;52.294;5.152;2023-04-01T06:08:51;19.63;;;8.45;;
51288;SDS011;37372;52.294;5.152;2023-04-01T06:27:44;15.90;;;6.53;;
51288;SDS011;37372;52.294;5.152;2023-04-01T06:44:54;22.65;;;11.20;;
51288;SDS011;37372;52.294;5.152;2023-04-01T06:47:43;19.67;;;9.45;;
51288;SDS011;37372;52.294;5.152;2023-04-01T06:50:21;20.75;;;9.93;;
51288;SDS011;37372;52.294;5.152;2023-04-01T06:53:45;22.17;;;10.18;;
51288;SDS011;37372;52.294;5.152;2023-04-01T06:56:02;24.33;;;10.50;;
51288;SDS011;37372;52.294;5.152;2023-04-01T06:58:37;20.02;;;8.95;;
51288;SDS011;37372;52.294;5.152;2023-04-01T07:01:12;19.77;;;8.57;;
51288;SDS011;37372;52.294;5.152;2023-04-01T07:06:31;20.77;;;9.65;;
51288;SDS011;37372;52.294;5.152;2023-04-01T07:09:03;21.05;;;9.10;;
51288;SDS011;37372;52.294;5.152;2023-04-01T07:11:34;23.23;;;10.00;;
51288;SDS011;37372;52.294;5.152;2023-04-01T07:14:22;23.35;;;10.23;;
51288;SDS011;37372;52.294;5.152;2023-04-01T07:16:56;24.05;;;9.77;;
51288;SDS011;37372;52.294;5.152;2023-04-01T07:19:47;26.73;;;10.30;;
51288;SDS011;37372;52.294;5.152;2023-04-01T07:22:40;25.23;;;11.13;;
51288;SDS011;37372;52.294;5.152;2023-04-01T07:25:18;28.77;;;10.88;;
51288;SDS011;37372;52.294;5.152;2023-04-01T07:27:52;29.73;;;11.80;;
51288;SDS011;37372;52.294;5.152;2023-04-01T07:30:22;33.30;;;12.18;;
51288;SDS011;37372;52.294;5.152;2023-04-01T07:33:15;32.13;;;13.95;;
51288;SDS011;37372;52.294;5.152;2023-04-01T07:39:02;35.95;;;14.02;;
51288;SDS011;37372;52.294;5.152;2023-04-01T07:41:57;35.95;;;13.32;;
51288;SDS011;37372;52.294;5.152;2023-04-01T07:49:45;42.60;;;16.60;;
51288;SDS011;37372;52.294;5.152;2023-04-01T07:52:40;34.67;;;15.93;;
51288;SDS011;37372;52.294;5.152;2023-04-01T07:55:14;33.95;;;14.43;;
51288;SDS011;37372;52.294;5.152;2023-04-01T07:58:02;32.67;;;13.32;;
51288;SDS011;37372;52.294;5.152;2023-04-01T08:00:47;31.73;;;14.05;;
51288;SDS011;37372;52.294;5.152;2023-04-01T08:09:43;31.38;;;13.77;;
51288;SDS011;37372;52.294;5.152;2023-04-01T08:15:21;29.95;;;13.52;;
51288;SDS011;37372;52.294;5.152;2023-04-01T08:23:18;28.17;;;13.27;;
51288;SDS011;37372;52.294;5.152;2023-04-01T08:26:22;30.52;;;13.40;;
51288;SDS011;37372;52.294;5.152;2023-04-01T08:28:54;32.08;;;12.68;;
51288;SDS011;37372;52.294;5.152;2023-04-01T08:34:08;28.65;;;12.73;;
51288;SDS011;37372;52.294;5.152;2023-04-01T08:37:23;24.63;;;10.27;;
51288;SDS011;37372;52.294;5.152;2023-04-01T08:40:16;24.98;;;10.82;;
51288;SDS011;37372;52.294;5.152;2023-04-01T08:43:14;22.10;;;10.35;;
51288;SDS011;37372;52.294;5.152;2023-04-01T08:45:49;22.08;;;9.95;;
51288;SDS011;37372;52.294;5.152;2023-04-01T08:51:33;22.77;;;10.07;;
51288;SDS011;37372;52.294;5.152;2023-04-01T09:00:19;21.77;;;9.13;;
51288;SDS011;37372;52.294;5.152;2023-04-01T09:14:34;23.15;;;9.68;;
51288;SDS011;37372;52.294;5.152;2023-04-01T09:22:25;23.88;;;11.32;;
51288;SDS011;37372;52.294;5.152;2023-04-01T09:28:16;26.27;;;11.00;;
51288;SDS011;37372;52.294;5.152;2023-04-01T09:42:44;30.25;;;14.20;;
51288;SDS011;37372;52.294;5.152;2023-04-01T09:45:37;31.08;;;13.23;;
51288;SDS011;37372;52.294;5.152;2023-04-01T09:49:13;33.47;;;13.13;;
51288;SDS011;37372;52.294;5.152;2023-04-01T09:56:42;28.98;;;12.32;;
51288;SDS011;37372;52.294;5.152;2023-04-01T10:20:54;24.58;;;12.80;;
51288;SDS011;37372;52.294;5.152;2023-04-01T10:38:39;23.33;;;11.30;;
51288;SDS011;37372;52.294;5.152;2023-04-01T11:14:59;14.35;;;7.32;;
51288;SDS011;37372;52.294;5.152;2023-04-01T11:20:35;14.18;;;8.82;;
51288;SDS011;37372;52.294;5.152;2023-04-01T11:26:20;21.05;;;10.93;;
51288;SDS011;37372;52.294;5.152;2023-04-01T11:32:16;21.48;;;11.95;;
51288;SDS011;37372;52.294;5.152;2023-04-01T11:46:28;20.30;;;10.88;;
51288;SDS011;37372;52.294;5.152;2023-04-01T11:52:10;18.85;;;11.13;;
51288;SDS011;37372;52.294;5.152;2023-04-01T11:58:14;19.45;;;11.50;;
51288;SDS011;37372;52.294;5.152;2023-04-01T12:12:20;29.45;;;13.48;;
51288;SDS011;37372;52.294;5.152;2023-04-01T12:23:26;25.88;;;13.32;;
51288;SDS011;37372;52.294;5.152;2023-04-01T12:37:21;15.80;;;9.35;;
51288;SDS011;37372;52.294;5.152;2023-04-01T12:46:05;15.70;;;8.60;;
51288;SDS011;37372;52.294;5.152;2023-04-01T12:55:16;11.27;;;7.32;;
51288;SDS011;37372;52.294;5.152;2023-04-01T12:58:02;11.57;;;7.38;;
51288;SDS011;37372;52.294;5.152;2023-04-01T13:15:54;11.38;;;7.57;;
51288;SDS011;37372;52.294;5.152;2023-04-01T13:33:36;15.50;;;9.93;;
51288;SDS011;37372;52.294;5.152;2023-04-01T13:50:51;19.13;;;11.30;;
51288;SDS011;37372;52.294;5.152;2023-04-01T14:05:53;18.90;;;9.80;;
51288;SDS011;37372;52.294;5.152;2023-04-01T14:20:27;19.38;;;10.25;;
51288;SDS011;37372;52.294;5.152;2023-04-01T14:58:11;12.07;;;7.63;;
51288;SDS011;37372;52.294;5.152;2023-04-01T15:03:45;14.35;;;8.15;;
51288;SDS011;37372;52.294;5.152;2023-04-01T15:24:26;12.13;;;6.40;;
51288;SDS011;37372;52.294;5.152;2023-04-01T15:28:44;11.75;;;6.68;;
51288;SDS011;37372;52.294;5.152;2023-04-01T15:31:04;13.98;;;7.28;;
51288;SDS011;37372;52.294;5.152;2023-04-01T15:33:53;10.80;;;7.30;;
51288;SDS011;37372;52.294;5.152;2023-04-01T16:11:25;8.10;;;5.85;;
51288;SDS011;37372;52.294;5.152;2023-04-01T16:19:40;8.20;;;6.15;;
51288;SDS011;37372;52.294;5.152;2023-04-01T16:28:18;9.95;;;6.53;;
51288;SDS011;37372;52.294;5.152;2023-04-01T16:34:02;8.32;;;5.82;;
51288;SDS011;37372;52.294;5.152;2023-04-01T16:39:37;6.60;;;4.40;;
51288;SDS011;37372;52.294;5.152;2023-04-01T16:48:11;6.35;;;3.38;;
51288;SDS011;37372;52.294;5.152;2023-04-01T16:54:00;4.70;;;2.97;;
51288;SDS011;37372;52.294;5.152;2023-04-01T16:56:45;6.82;;;3.15;;
51288;SDS011;37372;52.294;5.152;2023-04-01T16:59:21;4.15;;;2.80;;
51288;SDS011;37372;52.294;5.152;2023-04-01T17:10:40;4.18;;;2.83;;
51288;SDS011;37372;52.294;5.152;2023-04-01T17:13:46;4.47;;;2.80;;
51288;SDS011;37372;52.294;5.152;2023-04-01T17:24:59;9.60;;;4.03;;
51288;SDS011;37372;52.294;5.152;2023-04-01T17:28:14;4.85;;;3.40;;
51288;SDS011;37372;52.294;5.152;2023-04-01T17:56:07;8.32;;;3.38;;
51288;SDS011;37372;52.294;5.152;2023-04-01T18:02:10;5.50;;;3.40;;
51288;SDS011;37372;52.294;5.152;2023-04-01T18:11:13;5.70;;;3.75;;
51288;SDS011;37372;52.294;5.152;2023-04-01T18:14:07;6.35;;;2.80;;
51288;SDS011;37372;52.294;5.152;2023-04-01T18:16:52;5.47;;;3.60;;
51288;SDS011;37372;52.294;5.152;2023-04-01T18:25:14;5.88;;;3.70;;
51288;SDS011;37372;52.294;5.152;2023-04-01T18:28:22;6.38;;;4.78;;
51288;SDS011;37372;52.294;5.152;2023-04-01T18:38:55;6.20;;;4.60;;
51288;SDS011;37372;52.294;5.152;2023-04-01T18:52:37;10.68;;;7.05;;
51288;SDS011;37372;52.294;5.152;2023-04-01T18:57:52;8.75;;;6.30;;
51288;SDS011;37372;52.294;5.152;2023-04-01T19:00:22;8.33;;;5.93;;
51288;SDS011;37372;52.294;5.152;2023-04-01T19:08:46;8.43;;;6.05;;
51288;SDS011;37372;52.294;5.152;2023-04-01T19:11:33;8.75;;;6.00;;
51288;SDS011;37372;52.294;5.152;2023-04-01T19:50:02;8.73;;;6.40;;
51288;SDS011;37372;52.294;5.152;2023-04-01T19:52:37;10.25;;;6.63;;
51288;SDS011;37372;52.294;5.152;2023-04-01T20:01:04;11.38;;;7.93;;
51288;SDS011;37372;52.294;5.152;2023-04-01T20:03:41;13.85;;;8.60;;
51288;SDS011;37372;52.294;5.152;2023-04-01T20:08:42;15.23;;;8.48;;
51288;SDS011;37372;52.294;5.152;2023-04-01T20:16:46;13.48;;;7.57;;
51288;SDS011;37372;52.294;5.152;2023-04-01T20:19:21;12.13;;;7.47;;
51288;SDS011;37372;52.294;5.152;2023-04-01T20:22:00;11.60;;;7.43;;
51288;SDS011;37372;52.294;5.152;2023-04-01T20:24:35;11.88;;;7.22;;
51288;SDS011;37372;52.294;5.152;2023-04-01T20:32:36;9.93;;;6.85;;
51288;SDS011;37372;52.294;5.152;2023-04-01T20:41:10;8.55;;;5.85;;
51288;SDS011;37372;52.294;5.152;2023-04-01T20:46:45;10.35;;;6.97;;
51288;SDS011;37372;52.294;5.152;2023-04-01T20:51:53;10.65;;;6.72;;
51288;SDS011;37372;52.294;5.152;2023-04-01T20:55:13;7.82;;;5.43;;
51288;SDS011;37372;52.294;5.152;2023-04-01T20:57:31;11.50;;;6.70;;
51288;SDS011;37372;52.294;5.152;2023-04-01T21:00:17;9.25;;;6.38;;
51288;SDS011;37372;52.294;5.152;2023-04-01T21:06:40;11.20;;;7.03;;
51288;SDS011;37372;52.294;5.152;2023-04-01T21:17:15;9.90;;;6.88;;
51288;SDS011;37372;52.294;5.152;2023-04-01T21:20:02;7.43;;;6.15;;
51288;SDS011;37372;52.294;5.152;2023-04-01T21:23:25;11.30;;;6.60;;
51288;SDS011;37372;52.294;5.152;2023-04-01T21:32:04;9.80;;;7.43;;
51288;SDS011;37372;52.294;5.152;2023-04-01T21:35:01;9.57;;;6.25;;
51288;SDS011;37372;52.294;5.152;2023-04-01T21:44:00;13.68;;;7.70;;
51288;SDS011;37372;52.294;5.152;2023-04-01T22:07:01;15.65;;;8.32;;
51288;SDS011;37372;52.294;5.152;2023-04-01T22:09:29;11.90;;;8.35;;
51288;SDS011;37372;52.294;5.152;2023-04-01T22:18:13;14.98;;;8.05;;
51288;SDS011;37372;52.294;5.152;2023-04-01T22:20:53;12.95;;;8.30;;
51288;SDS011;37372;52.294;5.152;2023-04-01T22:23:40;12.02;;;8.80;;
51288;SDS011;37372;52.294;5.152;2023-04-01T22:29:13;18.85;;;9.25;;
51288;SDS011;37372;52.294;5.152;2023-04-01T22:37:46;14.55;;;8.57;;
51288;SDS011;37372;52.294;5.152;2023-04-01T22:40:49;15.70;;;8.73;;
51288;SDS011;37372;52.294;5.152;2023-04-01T22:49:04;19.55;;;9.93;;
51288;SDS011;37372;52.294;5.152;2023-04-01T22:51:54;14.98;;;10.07;;
51288;SDS011;37372;52.294;5.152;2023-04-01T22:54:40;15.77;;;9.23;;
51288;SDS011;37372;52.294;5.152;2023-04-01T22:59:58;14.80;;;9.35;;
51288;SDS011;37372;52.294;5.152;2023-04-01T23:02:30;20.67;;;9.98;;
51288;SDS011;37372;52.294;5.152;2023-04-01T23:05:02;17.60;;;9.15;;
51288;SDS011;37372;52.294;5.152;2023-04-01T23:13:10;14.95;;;9.88;;
51288;SDS011;37372;52.294;5.152;2023-04-01T23:15:42;13.60;;;8.70;;
51288;SDS011;37372;52.294;5.152;2023-04-01T23:18:12;15.32;;;8.90;;
51288;SDS011;37372;52.294;5.152;2023-04-01T23:29:19;18.98;;;11.45;;
51288;SDS011;37372;52.294;5.152;2023-04-01T23:31:58;20.67;;;11.18;;
51288;SDS011;37372;52.294;5.152;2023-04-01T23:34:29;17.35;;;11.15;;
51288;SDS011;37372;52.294;5.152;2023-04-01T23:37:11;19.23;;;11.43;;
51288;SDS011;37372;52.294;5.152;2023-04-01T23:39:51;18.63;;;11.32;;
51288;SDS011;37372;52.294;5.152;2023-04-01T23:44:58;20.58;;;11.23;;
51288;SDS011;37372;52.294;5.152;2023-04-01T23:47:39;19.58;;;10.57;;
51288;SDS011;37372;52.294;5.152;2023-04-01T23:50:07;18.60;;;10.45;;
51288;SDS011;37372;52.294;5.152;2023-04-01T23:52:42;16.30;;;10.65;;
51288;SDS011;37372;52.294;5.152;2023-04-01T23:55:19;19.33;;;11.02;;
51288;SDS011;37372;52.294;5.152;2023-04-01T23:58:16;19.10;;;11.25;;
